Guymon Municipal Airport Guymon US
ICAO: KGUY
IATA: GUY
Category: Medium
Scheduled Services: No

Elevation: 3123 ft
TransAlt. 18000 ft.

Airport Communications:
ASOS:119.925
KANSAS CITY CNTR:134
CTAF/UNICOM:122.7

KGUY Zoom In..

Runways:

(A) RW 18 length 5904 ft width 100 ft
---- / hdg 177

(B) RW 36 length 5904 ft width 100 ft
---- / hdg 357

Location; KGUY
Day. 25 / Time. 09.53 Zulu
* Altimeter: 30.36
* Temperature: 03° c. 37.4°f.
* Wind from: 280° Speed 06 kn.
Dewpoint: 03° c.
Visibility: 10 Statute Miles.
Clouds: Overcast 3200 ft.
Conditions: Light Rain.

KGUY 250953Z AUTO 28006KT 10SM -RA OVC032 03/03 A3036 RMK AO2 SLP278 P0002 T00330033


Wind From 280°
Speed 06 kn.

  YouTube Music Video
 
jpsmedia.com for Web Design  worldairports.se 2018   terms of use